createdAt,value
2019-04-14T00:01:32.612Z,100.00
2019-04-14T00:04:40.119Z,100.00
2019-04-14T00:07:10.221Z,100.00
2019-04-14T00:09:40.098Z,100.00
2019-04-14T00:12:12.076Z,100.00
2019-04-14T00:14:42.534Z,100.00
2019-04-14T00:17:12.987Z,100.00
2019-04-14T00:19:43.462Z,100.00
2019-04-14T00:22:14.089Z,100.00
2019-04-14T00:24:44.590Z,100.00
2019-04-14T00:27:14.970Z,100.00
2019-04-14T00:29:45.785Z,100.00
2019-04-14T00:32:16.245Z,100.00
2019-04-14T00:35:23.248Z,100.00
2019-04-14T00:38:21.818Z,100.00
2019-04-14T00:41:03.214Z,100.00
2019-04-14T00:43:57.564Z,100.00
2019-04-14T00:46:40.858Z,100.00
2019-04-14T00:49:11.437Z,100.00
2019-04-14T00:51:42.352Z,100.00
2019-04-14T00:54:13.162Z,100.00
2019-04-14T00:56:43.328Z,100.00
2019-04-14T00:59:13.642Z,100.00
2019-04-14T01:01:43.805Z,100.00
2019-04-14T01:04:14.363Z,100.00
2019-04-14T01:06:44.888Z,100.00
2019-04-14T01:09:15.316Z,100.00
2019-04-14T01:11:44.916Z,100.00
2019-04-14T01:14:14.797Z,100.00
2019-04-14T01:16:45.187Z,100.00
2019-04-14T01:19:15.555Z,100.00
2019-04-14T01:21:45.754Z,100.00
2019-04-14T01:24:16.373Z,100.00
2019-04-14T01:26:46.397Z,100.00
2019-04-14T01:29:16.588Z,100.00
2019-04-14T01:31:47.122Z,100.00
2019-04-14T01:34:17.329Z,100.00
2019-04-14T01:36:47.517Z,100.00
2019-04-14T01:39:17.622Z,100.00
2019-04-14T01:41:47.795Z,100.00
2019-04-14T01:44:17.789Z,100.00
2019-04-14T01:46:47.805Z,100.00
2019-04-14T01:49:17.952Z,100.00
2019-04-14T01:52:06.482Z,100.00
2019-04-14T01:54:43.456Z,100.00
2019-04-14T01:57:30.932Z,100.00
2019-04-14T02:00:20.651Z,100.00
2019-04-14T02:02:51.010Z,100.00
2019-04-14T02:05:21.380Z,100.00
2019-04-14T02:07:51.587Z,100.00
2019-04-14T02:10:21.701Z,100.00
2019-04-14T02:12:51.811Z,100.00
2019-04-14T02:15:22.284Z,100.00
2019-04-14T02:17:52.408Z,100.00
2019-04-14T02:20:22.931Z,100.00
2019-04-14T02:22:53.146Z,100.00
2019-04-14T02:25:23.138Z,100.00
2019-04-14T02:27:53.666Z,100.00
2019-04-14T02:30:28.551Z,100.00
2019-04-14T02:33:26.390Z,100.00
2019-04-14T02:35:55.633Z,100.00
2019-04-14T02:41:05.777Z,100.00
2019-04-14T02:43:29.882Z,100.00
2019-04-14T02:51:06.167Z,100.00
2019-04-14T02:53:49.843Z,100.00
2019-04-14T02:56:11.980Z,100.00
2019-04-14T03:01:07.029Z,100.00
2019-04-14T03:03:43.875Z,100.00
2019-04-14T03:06:05.686Z,100.00
2019-04-14T03:08:45.777Z,100.00
2019-04-14T03:11:09.526Z,100.00
2019-04-14T03:14:02.865Z,100.00
2019-04-14T03:19:06.536Z,100.00
2019-04-14T03:22:09.697Z,100.00
2019-04-14T03:24:33.927Z,100.00
2019-04-14T03:27:22.725Z,100.00
2019-04-14T03:30:05.067Z,100.00
2019-04-14T03:35:09.864Z,100.00
2019-04-14T03:42:38.323Z,100.00
2019-04-14T03:45:07.506Z,100.00
2019-04-14T03:52:43.789Z,100.00
2019-04-14T03:54:59.732Z,100.00
2019-04-14T03:57:12.571Z,100.00
2019-04-14T03:59:43.441Z,100.00
2019-04-14T04:02:13.992Z,100.00
2019-04-14T04:04:44.511Z,100.00
2019-04-14T04:07:14.946Z,100.00
2019-04-14T04:09:49.768Z,100.00
2019-04-14T04:12:22.469Z,100.00
2019-04-14T04:14:53.144Z,100.00
2019-04-14T04:17:45.142Z,100.00
2019-04-14T04:20:21.963Z,100.00
2019-04-14T04:23:09.737Z,100.00
2019-04-14T04:26:13.303Z,100.00
2019-04-14T04:29:20.248Z,100.00
2019-04-14T04:32:18.646Z,100.00
2019-04-14T04:35:10.750Z,100.00
2019-04-14T04:38:09.477Z,100.00
2019-04-14T04:40:39.742Z,100.00
2019-04-14T04:43:10.167Z,100.00
2019-04-14T04:45:40.810Z,100.00
2019-04-14T04:48:10.923Z,100.00
2019-04-14T04:50:41.026Z,100.00
2019-04-14T04:53:11.524Z,100.00
2019-04-14T04:55:41.650Z,100.00
2019-04-14T04:58:12.100Z,100.00
2019-04-14T05:00:41.824Z,100.00
2019-04-14T05:03:12.464Z,100.00
2019-04-14T05:06:41.626Z,100.00
2019-04-14T05:09:18.829Z,100.00
2019-04-14T05:12:08.954Z,100.00
2019-04-14T05:14:44.012Z,100.00
2019-04-14T05:17:14.817Z,100.00
2019-04-14T05:19:45.479Z,100.00
2019-04-14T05:22:17.717Z,100.00
2019-04-14T05:24:46.512Z,100.00
2019-04-14T05:27:16.686Z,100.00
2019-04-14T05:29:47.231Z,100.00
2019-04-14T05:32:17.418Z,100.00
2019-04-14T05:34:47.938Z,100.00
2019-04-14T05:37:18.243Z,100.00
2019-04-14T05:39:48.418Z,100.00
2019-04-14T05:42:22.066Z,100.00
2019-04-14T05:44:49.504Z,100.00
2019-04-14T05:47:19.754Z,100.00
2019-04-14T05:49:52.833Z,100.00
2019-04-14T05:52:21.229Z,100.00
2019-04-14T05:54:51.491Z,100.00
2019-04-14T05:57:21.982Z,100.00
2019-04-14T05:59:52.673Z,100.00
2019-04-14T06:02:24.419Z,100.00
2019-04-14T06:04:55.012Z,100.00
2019-04-14T06:07:24.753Z,100.00
2019-04-14T06:09:54.743Z,100.00
2019-04-14T06:12:24.346Z,100.00
2019-04-14T06:14:53.952Z,100.00
2019-04-14T06:17:23.527Z,100.00
2019-04-14T06:19:53.111Z,100.00
2019-04-14T06:22:22.700Z,100.00
2019-04-14T06:24:52.367Z,100.00
2019-04-14T06:27:21.973Z,100.00
2019-04-14T06:29:53.604Z,100.00
2019-04-14T06:32:39.331Z,100.00
2019-04-14T06:35:43.249Z,100.00
2019-04-14T06:38:22.486Z,100.00
2019-04-14T06:41:11.005Z,100.00
2019-04-14T06:43:48.758Z,100.00
2019-04-14T06:46:12.025Z,100.00
2019-04-14T06:48:41.666Z,100.00
2019-04-14T06:51:11.235Z,100.00
2019-04-14T06:53:40.897Z,100.00
2019-04-14T06:56:10.576Z,100.00
2019-04-14T06:58:40.177Z,100.00
2019-04-14T07:01:09.797Z,100.00
2019-04-14T07:03:39.406Z,100.00
2019-04-14T07:06:09.018Z,100.00
2019-04-14T07:08:38.603Z,100.00
2019-04-14T07:11:08.207Z,100.00
2019-04-14T07:13:40.042Z,100.00
2019-04-14T07:16:09.110Z,100.00
2019-04-14T07:18:38.795Z,100.00
2019-04-14T07:21:08.405Z,100.00
2019-04-14T07:24:22.303Z,100.00
2019-04-14T07:26:44.566Z,100.00
2019-04-14T07:29:14.815Z,100.00
2019-04-14T07:31:52.336Z,100.00
2019-04-14T07:34:29.909Z,100.00
2019-04-14T07:37:21.428Z,100.00
2019-04-14T07:40:22.009Z,100.00
2019-04-14T07:43:02.449Z,100.00
2019-04-14T07:45:48.763Z,100.00
2019-04-14T07:48:31.025Z,100.00
2019-04-14T07:51:19.542Z,100.00
2019-04-14T07:53:55.260Z,100.00
2019-04-14T07:56:49.839Z,100.00
2019-04-14T07:59:23.363Z,100.00
2019-04-14T08:02:08.254Z,99.77
2019-04-14T08:04:42.045Z,100.00
2019-04-14T08:07:11.667Z,98.35
2019-04-14T08:09:41.433Z,97.74
2019-04-14T08:12:11.026Z,100.00
2019-04-14T08:14:40.603Z,99.78
2019-04-14T08:17:10.284Z,94.29
2019-04-14T08:19:39.878Z,100.00
2019-04-14T08:22:09.479Z,100.00
2019-04-14T08:24:39.076Z,90.76
2019-04-14T08:27:08.739Z,95.31
2019-04-14T08:29:38.335Z,93.05
2019-04-14T08:32:07.976Z,97.53
2019-04-14T08:34:37.569Z,94.97
2019-04-14T08:37:07.198Z,85.05
2019-04-14T08:39:36.852Z,82.95
2019-04-14T08:42:18.798Z,86.57
2019-04-14T08:44:50.363Z,92.26
2019-04-14T08:47:28.714Z,91.58
2019-04-14T08:50:20.303Z,86.27
2019-04-14T08:52:55.577Z,83.41
2019-04-14T08:55:30.777Z,85.62
2019-04-14T08:58:08.091Z,73.74
2019-04-14T09:00:59.702Z,69.66
2019-04-14T09:03:47.272Z,74.37
2019-04-14T09:06:35.795Z,74.83
2019-04-14T09:09:19.953Z,72.46
2019-04-14T09:11:56.643Z,66.45
2019-04-14T09:14:26.256Z,73.72
2019-04-14T09:16:55.910Z,68.34
2019-04-14T09:19:25.541Z,69.09
2019-04-14T09:21:55.162Z,69.59
2019-04-14T09:24:24.740Z,65.74
2019-04-14T09:26:54.358Z,86.44
2019-04-14T09:29:23.979Z,63.90
2019-04-14T09:31:53.600Z,66.78
2019-04-14T09:34:23.206Z,55.44
2019-04-14T09:36:52.763Z,55.10
2019-04-14T09:39:22.356Z,56.71
2019-04-14T09:41:51.947Z,58.02
2019-04-14T09:44:21.554Z,56.16
2019-04-14T09:46:51.178Z,50.91
2019-04-14T09:49:20.811Z,52.04
2019-04-14T09:51:50.400Z,50.51
2019-04-14T09:54:20.008Z,53.92
2019-04-14T09:56:49.625Z,50.02
2019-04-14T09:59:19.194Z,51.61
2019-04-14T10:01:48.875Z,50.03
2019-04-14T10:04:18.506Z,49.02
2019-04-14T10:06:48.163Z,50.98
2019-04-14T10:09:17.934Z,48.62
2019-04-14T10:11:48.809Z,50.54
2019-04-14T10:14:18.956Z,51.63
2019-04-14T10:16:48.555Z,48.70
2019-04-14T10:19:18.149Z,50.75
2019-04-14T10:21:47.821Z,48.99
2019-04-14T10:24:17.415Z,48.03
2019-04-14T10:26:47.024Z,46.92
2019-04-14T10:29:16.692Z,50.44
2019-04-14T10:31:46.289Z,48.55
2019-04-14T10:34:15.883Z,48.61
2019-04-14T10:36:45.471Z,50.12
2019-04-14T10:39:15.063Z,48.43
2019-04-14T10:41:44.639Z,50.78
2019-04-14T10:44:14.261Z,50.39
2019-04-14T10:46:43.857Z,49.32
2019-04-14T10:49:13.578Z,47.42
2019-04-14T10:51:43.214Z,48.87
2019-04-14T10:54:12.788Z,48.18
2019-04-14T10:56:42.375Z,47.56
2019-04-14T10:59:12.036Z,47.10
2019-04-14T11:01:41.654Z,46.81
2019-04-14T11:04:11.254Z,46.94
2019-04-14T11:06:53.145Z,46.90
2019-04-14T11:09:22.773Z,44.42
2019-04-14T11:11:52.375Z,44.76
2019-04-14T11:14:21.955Z,47.59
2019-04-14T11:16:51.553Z,44.74
2019-04-14T11:19:21.168Z,44.46
2019-04-14T11:21:50.854Z,43.45
2019-04-14T11:24:20.444Z,44.19
2019-04-14T11:26:50.050Z,45.54
2019-04-14T11:29:22.260Z,45.10
2019-04-14T11:32:13.387Z,46.39
2019-04-14T11:34:53.261Z,43.74
2019-04-14T11:37:40.652Z,43.30
2019-04-14T11:40:12.512Z,43.56
2019-04-14T11:42:51.814Z,42.27
2019-04-14T11:45:13.535Z,46.84
2019-04-14T11:47:43.189Z,46.62
2019-04-14T11:50:13.172Z,47.34
2019-04-14T11:52:42.795Z,44.93
2019-04-14T11:55:12.530Z,46.91
2019-04-14T11:57:42.075Z,45.84
2019-04-14T12:00:26.603Z,43.03
2019-04-14T12:03:21.004Z,46.76
2019-04-14T12:06:16.036Z,48.64
2019-04-14T12:09:19.994Z,46.97
2019-04-14T12:11:49.654Z,48.54
2019-04-14T12:14:19.284Z,48.17
2019-04-14T12:16:48.915Z,46.79
2019-04-14T12:19:18.539Z,47.31
2019-04-14T12:21:48.132Z,52.17
2019-04-14T12:24:17.779Z,48.20
2019-04-14T12:26:47.425Z,48.19
2019-04-14T12:29:17.143Z,47.90
2019-04-14T12:31:47.258Z,49.98
2019-04-14T12:34:18.320Z,52.13
2019-04-14T12:36:48.232Z,53.79
2019-04-14T12:39:23.317Z,51.69
2019-04-14T12:42:06.130Z,50.40
2019-04-14T12:44:54.758Z,49.03
2019-04-14T12:47:49.365Z,49.75
2019-04-14T12:50:25.776Z,54.73
2019-04-14T12:52:55.718Z,57.05
2019-04-14T12:55:25.383Z,56.54
2019-04-14T12:57:57.755Z,58.73
2019-04-14T13:00:45.003Z,55.71
2019-04-14T13:03:14.719Z,56.41
2019-04-14T13:05:44.336Z,56.39
2019-04-14T13:08:13.962Z,56.89
2019-04-14T13:10:43.590Z,54.47
2019-04-14T13:13:13.183Z,57.09
2019-04-14T13:15:42.807Z,53.27
2019-04-14T13:18:12.523Z,50.79
2019-04-14T13:20:42.134Z,51.32
2019-04-14T13:23:11.764Z,49.65
2019-04-14T13:25:41.388Z,47.39
2019-04-14T13:28:11.042Z,48.62
2019-04-14T13:30:42.813Z,51.45
2019-04-14T13:33:12.398Z,52.39
2019-04-14T13:35:42.026Z,49.81
2019-04-14T13:38:12.596Z,53.67
2019-04-14T13:40:42.527Z,55.25
2019-04-14T13:43:12.107Z,60.73
2019-04-14T13:45:41.667Z,61.73
2019-04-14T13:48:11.324Z,63.27
2019-04-14T13:50:40.895Z,63.05
2019-04-14T13:53:10.481Z,66.66
2019-04-14T13:55:40.104Z,64.77
2019-04-14T13:58:09.747Z,66.83
2019-04-14T14:00:39.459Z,66.88
2019-04-14T14:03:09.086Z,67.23
2019-04-14T14:05:38.667Z,69.33
2019-04-14T14:08:08.349Z,70.68
2019-04-14T14:10:38.045Z,68.59
2019-04-14T14:13:44.728Z,68.35
2019-04-14T14:16:38.895Z,65.93
2019-04-14T14:19:25.286Z,69.45
2019-04-14T14:22:07.970Z,73.72
2019-04-14T14:24:47.551Z,73.41
2019-04-14T14:27:17.138Z,77.90
2019-04-14T14:29:46.792Z,76.97
2019-04-14T14:32:26.721Z,73.97
2019-04-14T14:34:56.338Z,79.85
2019-04-14T14:37:25.953Z,76.97
2019-04-14T14:39:55.608Z,76.92
2019-04-14T14:42:25.212Z,74.69
2019-04-14T14:45:04.550Z,74.29
2019-04-14T14:47:34.763Z,70.82
2019-04-14T14:50:26.961Z,70.51
2019-04-14T14:52:56.569Z,72.68
2019-04-14T14:55:26.156Z,69.17
2019-04-14T14:57:55.742Z,69.94
2019-04-14T15:00:33.762Z,70.91
2019-04-14T15:03:03.558Z,71.82
2019-04-14T15:05:33.159Z,72.07
2019-04-14T15:08:03.149Z,71.13
2019-04-14T15:10:32.784Z,75.60
2019-04-14T15:13:02.379Z,77.99
2019-04-14T15:15:31.955Z,73.79
2019-04-14T15:18:01.599Z,71.40
2019-04-14T15:20:31.226Z,72.05
2019-04-14T15:23:00.853Z,71.72
2019-04-14T15:25:30.447Z,70.06
2019-04-14T15:28:00.138Z,70.00
2019-04-14T15:30:29.788Z,71.10
2019-04-14T15:32:59.484Z,71.98
2019-04-14T15:35:29.058Z,70.38
2019-04-14T15:37:58.684Z,71.76
2019-04-14T15:40:28.270Z,72.46
2019-04-14T15:42:57.903Z,72.69
2019-04-14T15:45:27.523Z,72.48
2019-04-14T15:47:57.146Z,74.19
2019-04-14T15:50:26.724Z,77.42
2019-04-14T15:52:56.358Z,75.68
2019-04-14T15:55:26.022Z,78.74
2019-04-14T15:58:26.750Z,74.28
2019-04-14T16:01:30.403Z,75.50
2019-04-14T16:04:06.270Z,74.69
2019-04-14T16:06:53.782Z,78.20
2019-04-14T16:09:34.805Z,76.09
2019-04-14T16:12:19.067Z,79.90
2019-04-14T16:15:19.874Z,77.66
2019-04-14T16:18:14.842Z,76.58
2019-04-14T16:20:44.977Z,76.23
2019-04-14T16:23:14.567Z,78.04
2019-04-14T16:25:58.798Z,78.01
2019-04-14T16:28:38.689Z,84.03
2019-04-14T16:31:45.649Z,90.19
2019-04-14T16:34:23.333Z,94.29
2019-04-14T16:36:53.332Z,100.00
2019-04-14T16:39:22.919Z,100.00
2019-04-14T16:41:52.608Z,100.00
2019-04-14T16:44:22.182Z,100.00
2019-04-14T16:46:51.818Z,100.00
2019-04-14T16:49:21.471Z,100.00
2019-04-14T16:52:12.682Z,100.00
2019-04-14T16:54:51.862Z,100.00
2019-04-14T16:57:39.148Z,100.00
2019-04-14T17:00:10.124Z,100.00
2019-04-14T17:02:39.720Z,100.00
2019-04-14T17:05:09.509Z,100.00
2019-04-14T17:07:39.143Z,100.00
2019-04-14T17:10:08.912Z,100.00
2019-04-14T17:12:38.594Z,100.00
2019-04-14T17:15:28.053Z,100.00
2019-04-14T17:18:15.603Z,100.00
2019-04-14T17:21:04.052Z,100.00
2019-04-14T17:23:40.926Z,100.00
2019-04-14T17:26:16.451Z,100.00
2019-04-14T17:29:07.703Z,100.00
2019-04-14T17:31:55.150Z,100.00
2019-04-14T17:34:37.913Z,100.00
2019-04-14T17:37:17.500Z,100.00
2019-04-14T17:39:51.652Z,100.00
2019-04-14T17:42:25.418Z,100.00
2019-04-14T17:45:12.769Z,100.00
2019-04-14T17:48:16.276Z,100.00
2019-04-14T17:51:10.932Z,100.00
2019-04-14T17:54:05.428Z,100.00
2019-04-14T17:57:06.092Z,100.00
2019-04-14T17:59:49.542Z,100.00
2019-04-14T18:02:30.026Z,100.00
2019-04-14T18:05:11.667Z,100.00
2019-04-14T18:07:49.007Z,100.00
2019-04-14T18:10:28.793Z,100.00
2019-04-14T18:13:16.123Z,100.00
2019-04-14T18:16:00.658Z,100.00
2019-04-14T18:18:35.922Z,100.00
2019-04-14T18:21:07.756Z,100.00
2019-04-14T18:23:37.347Z,100.00
2019-04-14T18:26:07.934Z,100.00
2019-04-14T18:28:56.781Z,100.00
2019-04-14T18:31:40.506Z,100.00
2019-04-14T18:34:27.676Z,100.00
2019-04-14T18:37:19.035Z,100.00
2019-04-14T18:40:06.567Z,100.00
2019-04-14T18:43:01.034Z,100.00
2019-04-14T18:45:55.429Z,100.00
2019-04-14T18:48:34.797Z,100.00
2019-04-14T18:51:18.134Z,100.00
2019-04-14T18:54:15.637Z,100.00
2019-04-14T18:56:51.628Z,100.00
2019-04-14T18:59:38.784Z,100.00
2019-04-14T19:02:09.854Z,100.00
2019-04-14T19:04:39.530Z,100.00
2019-04-14T19:07:09.150Z,100.00
2019-04-14T19:09:38.772Z,100.00
2019-04-14T19:12:39.667Z,100.00
2019-04-14T19:15:28.480Z,100.00
2019-04-14T19:18:16.995Z,100.00
2019-04-14T19:20:50.963Z,100.00
2019-04-14T19:23:20.594Z,100.00
2019-04-14T19:25:50.184Z,100.00
2019-04-14T19:28:19.821Z,100.00
2019-04-14T19:30:49.418Z,100.00
2019-04-14T19:33:19.066Z,100.00
2019-04-14T19:35:48.726Z,100.00
2019-04-14T19:38:18.338Z,100.00
2019-04-14T19:40:47.972Z,100.00
2019-04-14T19:43:23.553Z,100.00
2019-04-14T19:45:48.925Z,100.00
2019-04-14T19:48:18.507Z,100.00
2019-04-14T19:50:48.199Z,100.00
2019-04-14T19:53:17.821Z,100.00
2019-04-14T19:55:47.482Z,100.00
2019-04-14T19:58:17.105Z,100.00
2019-04-14T20:00:46.747Z,100.00
2019-04-14T20:03:16.382Z,100.00
2019-04-14T20:05:46.356Z,100.00
2019-04-14T20:08:15.949Z,100.00
2019-04-14T20:10:45.563Z,100.00
2019-04-14T20:13:15.247Z,100.00
2019-04-14T20:16:04.316Z,100.00
2019-04-14T20:18:42.178Z,100.00
2019-04-14T20:21:22.885Z,100.00
2019-04-14T20:24:06.515Z,100.00
2019-04-14T20:27:03.833Z,100.00
2019-04-14T20:29:42.420Z,100.00
2019-04-14T20:32:14.988Z,100.00
2019-04-14T20:34:44.573Z,100.00
2019-04-14T20:37:15.055Z,100.00
2019-04-14T20:39:44.675Z,100.00
2019-04-14T20:42:14.426Z,100.00
2019-04-14T20:44:44.083Z,100.00
2019-04-14T20:47:13.856Z,100.00
2019-04-14T20:49:43.440Z,100.00
2019-04-14T20:52:13.041Z,100.00
2019-04-14T20:54:42.637Z,100.00
2019-04-14T20:57:12.675Z,100.00
2019-04-14T20:59:42.374Z,100.00
2019-04-14T21:02:30.133Z,100.00
2019-04-14T21:05:24.828Z,100.00
2019-04-14T21:08:25.179Z,100.00
2019-04-14T21:11:01.908Z,100.00
2019-04-14T21:13:59.680Z,100.00
2019-04-14T21:16:57.179Z,100.00
2019-04-14T21:19:47.289Z,100.00
2019-04-14T21:22:27.432Z,100.00
2019-04-14T21:25:15.878Z,100.00
2019-04-14T21:28:22.398Z,100.00
2019-04-14T21:31:10.888Z,100.00
2019-04-14T21:34:05.560Z,100.00
2019-04-14T21:36:42.739Z,100.00
2019-04-14T21:39:49.709Z,100.00
2019-04-14T21:42:19.762Z,100.00
2019-04-14T21:44:49.363Z,100.00
2019-04-14T21:47:18.939Z,100.00
2019-04-14T21:49:48.543Z,100.00
2019-04-14T21:52:35.934Z,100.00
2019-04-14T21:55:06.187Z,100.00
2019-04-14T21:57:57.462Z,100.00
2019-04-14T22:01:43.369Z,100.00
2019-04-14T22:04:40.759Z,100.00
2019-04-14T22:07:28.215Z,100.00
2019-04-14T22:10:03.694Z,100.00
2019-04-14T22:12:33.815Z,100.00
2019-04-14T22:15:03.493Z,100.00
2019-04-14T22:17:33.075Z,100.00
2019-04-14T22:20:02.654Z,100.00
2019-04-14T22:22:32.247Z,100.00
2019-04-14T22:25:01.870Z,100.00
2019-04-14T22:27:31.575Z,100.00
2019-04-14T22:30:01.145Z,100.00
2019-04-14T22:32:30.722Z,100.00
2019-04-14T22:35:00.313Z,100.00
2019-04-14T22:37:29.934Z,100.00
2019-04-14T22:39:59.613Z,100.00
2019-04-14T22:42:29.204Z,100.00
2019-04-14T22:44:58.785Z,100.00
2019-04-14T22:47:28.367Z,100.00
2019-04-14T22:49:58.028Z,100.00
2019-04-14T22:52:27.591Z,100.00
2019-04-14T22:54:57.167Z,100.00
2019-04-14T22:57:26.778Z,100.00
2019-04-14T22:59:56.418Z,100.00
2019-04-14T23:02:40.633Z,100.00
2019-04-14T23:05:32.508Z,100.00
2019-04-14T23:08:23.811Z,100.00
2019-04-14T23:11:10.566Z,100.00
2019-04-14T23:13:58.808Z,100.00
2019-04-14T23:16:56.711Z,100.00
2019-04-14T23:19:34.633Z,100.00
2019-04-14T23:22:18.847Z,100.00
2019-04-14T23:24:48.427Z,100.00
2019-04-14T23:27:17.983Z,100.00
2019-04-14T23:29:47.662Z,100.00
2019-04-14T23:32:17.240Z,100.00
2019-04-14T23:34:46.815Z,100.00
2019-04-14T23:37:16.400Z,100.00
2019-04-14T23:39:45.954Z,100.00
2019-04-14T23:42:15.544Z,100.00
2019-04-14T23:44:45.130Z,100.00
2019-04-14T23:47:14.694Z,100.00
2019-04-14T23:49:44.309Z,100.00
2019-04-14T23:52:13.889Z,100.00
2019-04-14T23:54:43.453Z,100.00
2019-04-14T23:57:13.111Z,100.00
2019-04-14T23:59:42.696Z,100.00
